»·PEaware :: SKW3256 KPHX-KMFR

SKW3256 :: KPHX-KMFR

FLIGHT INFORMATION

Flight Status: Arrived
Operator:
SkyWest Airlines
More flights by this operator :: More flights under this callsign
Pilot: Anonymous 12254 (12254)
Aircraft: CANADAIR CL-600 CRJ-200
(CRJ2)
More flights by this aircraft type
Origin: KPHX Phoenix Sky Harbor Intl
United States
Destination: KMFR Rogue Valley Intl-Medford
United States
More flights between these airports :: More routes between these airports
Route: ZEPER1 SISIE DOVEE Q15 KENNO FMG SAMIE
File this flight plan on PilotEdge
Remarks:
Altitude:
(Current/Filed)
34,000ft
Speed:
(Current/Filed)
450kts
Departed: 22-Sep-19 08:13 AM
Arrived: 22-Sep-19 10:06 AM
Distance/Time
Traveled:
742nm/1:53
Distance/Time
To Go:
Arrived

Flight Plot

Page will automatically refresh every two minutes.

Flight plan parsing failed; only flown route is shown


Map Options




Map Legend


Flown Route
Filed Route
Departure Airport
Arrival Airport
Navaid (VOR, NDB)
Fix

Horizontal Profiles

Position Reports

Time Latitude Longitude Heading Altitude Ground
Speed
22-Sep-19 07:40 33.436865 -112.008318 270 1124ft 0kts
22-Sep-19 07:41 33.436865 -112.008318 270 1124ft 0kts
22-Sep-19 07:42 33.436865 -112.008318 270 1124ft 0kts
22-Sep-19 07:43 33.436865 -112.008318 270 1124ft 0kts
22-Sep-19 07:44 33.436865 -112.008318 270 1124ft 0kts
22-Sep-19 07:45 33.436865 -112.008318 270 1124ft 0kts
22-Sep-19 07:46 33.436865 -112.008318 270 1124ft 0kts
22-Sep-19 07:47 33.436865 -112.008318 270 1124ft 0kts
22-Sep-19 07:48 33.436865 -112.008318 270 1124ft 0kts
22-Sep-19 07:49 33.436865 -112.008318 270 1124ft 0kts
22-Sep-19 07:50 33.436865 -112.008318 270 1124ft 0kts
22-Sep-19 07:51 33.436865 -112.008318 270 1124ft 0kts
22-Sep-19 07:52 33.436865 -112.008318 270 1124ft 0kts
22-Sep-19 07:53 33.436865 -112.008318 270 1124ft 0kts
22-Sep-19 07:54 33.436865 -112.008318 270 1124ft 0kts
22-Sep-19 07:55 33.436865 -112.008318 270 1124ft 0kts
22-Sep-19 07:56 33.436865 -112.008318 270 1124ft 0kts
22-Sep-19 07:57 33.436865 -112.008318 270 1124ft 0kts
22-Sep-19 07:58 33.436857 -112.007713 277 1124ft 8kts
22-Sep-19 07:59 33.436655 -112.007348 355 1124ft 0kts
22-Sep-19 08:00 33.436734 -112.007347 1 1124ft 1kts
22-Sep-19 08:01 33.437328 -112.007357 357 1124ft 3kts
22-Sep-19 08:02 33.437774 -112.007353 0 1125ft 0kts
22-Sep-19 08:03 33.438022 -112.007349 0 1125ft 0kts
22-Sep-19 08:04 33.438022 -112.007349 0 1125ft 0kts
22-Sep-19 08:05 33.438022 -112.007349 0 1125ft 0kts
22-Sep-19 08:06 33.438022 -112.007349 0 1125ft 0kts
22-Sep-19 08:07 33.438022 -112.007349 0 1125ft 0kts
22-Sep-19 08:08 33.439050 -112.007343 359 1127ft 7kts
22-Sep-19 08:09 33.439757 -112.011661 270 1124ft 22kts
22-Sep-19 08:10 33.439761 -112.021109 269 1117ft 31kts
22-Sep-19 08:11 33.439896 -112.029537 339 1111ft 0kts
22-Sep-19 08:12 33.440871 -112.027734 90 1112ft 52kts
22-Sep-19 08:13 33.441101 -111.974562 85 1589ft 194kts
22-Sep-19 08:14 33.437818 -111.913608 95 3163ft 156kts
22-Sep-19 08:15 33.451841 -111.875601 10 4719ft 173kts
22-Sep-19 08:16 33.507309 -111.863582 7 6813ft 222kts
22-Sep-19 08:17 33.571845 -111.851371 7 8886ft 244kts
22-Sep-19 08:18 33.641384 -111.838490 6 10716ft 252kts
22-Sep-19 08:19 33.716784 -111.848906 342 12721ft 290kts
22-Sep-19 08:20 33.775068 -111.920177 304 14834ft 318kts
22-Sep-19 08:21 33.830651 -112.010276 303 17018ft 347kts
22-Sep-19 08:22 33.889189 -112.106251 302 19560ft 358kts
22-Sep-19 08:23 33.949911 -112.206227 302 21026ft 394kts
22-Sep-19 08:24 34.018708 -112.319617 303 22501ft 425kts
22-Sep-19 08:25 34.109313 -112.416334 315 24705ft 438kts
22-Sep-19 08:26 34.203911 -112.511629 314 26889ft 440kts
22-Sep-19 08:27 34.298279 -112.606940 313 29053ft 438kts
22-Sep-19 08:28 34.391351 -112.701216 312 31245ft 431kts
22-Sep-19 08:29 34.482538 -112.793857 311 33468ft 418kts
22-Sep-19 08:30 34.572804 -112.886596 310 34227ft 436kts
22-Sep-19 08:31 34.666419 -112.988430 310 34242ft 457kts
22-Sep-19 08:32 34.761765 -113.092741 310 34475ft 460kts
22-Sep-19 08:33 34.857348 -113.197662 310 34606ft 462kts
22-Sep-19 08:34 34.953731 -113.303964 312 34434ft 469kts
22-Sep-19 08:35 35.017386 -113.437294 287 34131ft 457kts
22-Sep-19 08:36 35.064285 -113.584301 288 34124ft 464kts
22-Sep-19 08:37 35.112075 -113.733227 288 34132ft 466kts
22-Sep-19 08:38 35.159439 -113.881597 288 34146ft 466kts
22-Sep-19 08:39 35.206707 -114.030335 288 34143ft 466kts
22-Sep-19 08:40 35.253940 -114.179777 288 34128ft 467kts
22-Sep-19 08:41 35.300928 -114.329220 288 34104ft 467kts
22-Sep-19 08:42 35.347819 -114.479059 288 34044ft 467kts
22-Sep-19 08:43 35.394630 -114.629408 288 34017ft 466kts
22-Sep-19 08:44 35.440864 -114.779039 288 34040ft 466kts
22-Sep-19 08:45 35.526143 -114.903258 309 34049ft 476kts
22-Sep-19 08:46 35.617534 -115.023091 309 34079ft 478kts
22-Sep-19 08:47 35.709430 -115.144150 309 34090ft 480kts
22-Sep-19 08:48 35.801319 -115.265660 309 34104ft 483kts
22-Sep-19 08:49 35.893484 -115.387938 308 34110ft 484kts
22-Sep-19 08:50 35.985980 -115.511148 308 34084ft 484kts
22-Sep-19 08:51 36.078460 -115.634769 308 34107ft 484kts
22-Sep-19 08:52 36.170064 -115.757699 308 34163ft 483kts
22-Sep-19 08:53 36.261752 -115.881177 308 34137ft 484kts
22-Sep-19 08:54 36.353496 -116.005206 308 34134ft 484kts
22-Sep-19 08:55 36.444641 -116.128885 308 34172ft 483kts
22-Sep-19 08:57 36.535859 -116.253137 308 34149ft 484kts
22-Sep-19 08:58 36.626708 -116.377346 308 34119ft 484kts
22-Sep-19 08:59 36.717574 -116.502036 308 34153ft 483kts
22-Sep-19 09:00 36.808147 -116.626834 308 34164ft 483kts
22-Sep-19 09:01 36.898766 -116.752133 307 34187ft 483kts
22-Sep-19 09:02 36.989401 -116.877956 307 34229ft 483kts
22-Sep-19 09:03 37.080010 -117.004258 308 34213ft 488kts
22-Sep-19 09:04 37.170993 -117.131507 309 34220ft 489kts
22-Sep-19 09:05 37.261923 -117.259192 309 34243ft 490kts
22-Sep-19 09:06 37.363409 -117.376043 318 34243ft 494kts
22-Sep-19 09:07 37.471101 -117.485140 318 34245ft 494kts
22-Sep-19 09:08 37.579017 -117.594835 318 34263ft 494kts
22-Sep-19 09:09 37.686784 -117.704800 318 34280ft 494kts
22-Sep-19 09:10 37.793990 -117.814616 318 34280ft 494kts
22-Sep-19 09:11 37.901591 -117.925250 318 34285ft 494kts
22-Sep-19 09:12 38.008783 -118.035895 317 34287ft 494kts
22-Sep-19 09:13 38.116526 -118.147557 318 34284ft 494kts
22-Sep-19 09:14 38.224012 -118.259382 317 34264ft 494kts
22-Sep-19 09:15 38.331752 -118.371930 318 34255ft 494kts
22-Sep-19 09:16 38.438226 -118.483568 317 34263ft 494kts
22-Sep-19 09:16 38.526889 -118.576883 318 34256ft 494kts
22-Sep-19 09:18 38.649701 -118.706645 317 34278ft 494kts
22-Sep-19 09:18 38.738712 -118.801073 317 34293ft 494kts
22-Sep-19 09:19 38.844619 -118.913837 317 34409ft 490kts
22-Sep-19 09:21 38.967171 -119.044853 317 34538ft 484kts
22-Sep-19 09:22 39.071172 -119.156554 317 34483ft 482kts
22-Sep-19 09:23 39.174022 -119.267452 317 34411ft 481kts
22-Sep-19 09:23 39.260146 -119.360645 317 34357ft 481kts
22-Sep-19 09:24 39.363152 -119.472506 317 34332ft 480kts
22-Sep-19 09:25 39.466149 -119.584828 317 34328ft 480kts
22-Sep-19 09:26 39.569488 -119.694746 318 34307ft 481kts
22-Sep-19 09:27 39.675121 -119.802260 318 34335ft 481kts
22-Sep-19 09:28 39.781285 -119.910684 318 34330ft 482kts
22-Sep-19 09:29 39.886773 -120.018837 318 34000ft 477kts
22-Sep-19 09:30 39.990951 -120.126086 318 33999ft 471kts
22-Sep-19 09:31 40.094334 -120.232920 318 33983ft 469kts
22-Sep-19 09:32 40.196708 -120.339165 318 33960ft 469kts
22-Sep-19 09:34 40.316650 -120.464147 318 33961ft 468kts
22-Sep-19 09:34 40.401942 -120.553410 318 33958ft 468kts
22-Sep-19 09:35 40.504409 -120.661013 317 33962ft 467kts
22-Sep-19 09:36 40.606209 -120.768359 317 33964ft 468kts
22-Sep-19 09:37 40.708632 -120.876791 317 33965ft 468kts
22-Sep-19 09:38 40.810611 -120.985190 317 33960ft 468kts
22-Sep-19 09:39 40.912638 -121.094060 317 34071ft 466kts
22-Sep-19 09:40 41.014063 -121.202716 316 34063ft 467kts
22-Sep-19 09:41 41.114630 -121.310939 315 34053ft 470kts
22-Sep-19 09:42 41.216472 -121.421038 315 34060ft 472kts
22-Sep-19 09:43 41.318633 -121.531887 315 33806ft 466kts
22-Sep-19 09:44 41.419039 -121.641284 315 32149ft 456kts
22-Sep-19 09:45 41.516063 -121.747429 315 30554ft 446kts
22-Sep-19 09:46 41.611544 -121.852298 315 28217ft 439kts
22-Sep-19 09:47 41.705666 -121.956102 316 25708ft 433kts
22-Sep-19 09:48 41.798506 -122.058862 316 23190ft 426kts
22-Sep-19 09:49 41.889451 -122.159909 316 20673ft 418kts
22-Sep-19 09:50 41.978583 -122.259335 317 18134ft 404kts
22-Sep-19 09:51 42.061993 -122.352701 317 15592ft 373kts
22-Sep-19 09:52 42.139865 -122.440164 317 13057ft 354kts
22-Sep-19 09:53 42.212121 -122.521632 318 10491ft 309kts
22-Sep-19 09:54 42.271318 -122.585520 335 8423ft 250kts
22-Sep-19 09:55 42.328995 -122.620008 334 8062ft 204kts
22-Sep-19 09:56 42.381234 -122.650973 334 8081ft 201kts
22-Sep-19 09:57 42.434525 -122.682845 334 7326ft 219kts
22-Sep-19 09:58 42.493675 -122.719763 334 6083ft 227kts
22-Sep-19 09:59 42.547274 -122.753562 334 6089ft 198kts
22-Sep-19 10:00 42.562839 -122.810072 244 6091ft 193kts
22-Sep-19 10:01 42.536344 -122.878252 244 5389ft 224kts
22-Sep-19 10:02 42.490581 -122.924892 171 4308ft 211kts
22-Sep-19 10:03 42.437635 -122.906193 157 2367ft 181kts
22-Sep-19 10:04 42.394853 -122.883630 159 1505ft 141kts
22-Sep-19 10:05 42.373322 -122.873500 246 1314ft 5kts
22-Sep-19 10:06 42.372533 -122.873601 161 1314ft 7kts
22-Sep-19 10:07 42.369196 -122.873359 240 1317ft 6kts
22-Sep-19 10:08 42.369094 -122.873667 249 1317ft 0kts

Navigation Log

Ident Type
Flight plan parsing failed, navigation log unavailable